Latest Weather Observations for Southern Cross Airport

IDW60801

Issued at 9:32 am WST Saturday 28 March 2015 (issued every 30 minutes, with the page automatically refreshed every 10 minutes)

About weather observations | Map of weather stations | Latest weather observations for WA | Other Formats
Station Details ID: 012320 Name: SOUTHERN CROSS AIRFIELD Lat: -31.24 Lon: 119.36 Height: 347.4 m
Data from the previous 72 hours. | See also: Recent months at Southern Cross Airport
Date/Time
WST
Temp
°C
App
Temp
°C
Dew
Point
Rel
Hum
%
Delta-T
°C
Wind Press
QNH
hPa
Press
MSL
hPa
Rain
since 9 am
mm
Dir
 
Spd
km/h
Gust
km/h
Spd
kts
Gust
kts
28/09:30am 16.2 16.0 13.5 84 1.5 SSE 7 9 4 5 1021.4 1019.8 0.0
28/09:00am 15.1 14.4 13.3 89 1.0 E 9 13 5 7 1021.4 1019.8 5.8
28/08:30am 14.5 14.2 13.4 93 0.6 ESE 7 11 4 6 1021.2 1019.6 5.8
28/08:00am 14.0 13.6 13.1 94 0.5 SSE 7 9 4 5 1021.1 1019.5 5.8
28/07:30am 13.6 13.1 12.8 95 0.4 ESE 7 9 4 5 1020.9 1019.3 5.8
28/07:00am 13.4 13.1 12.6 95 0.4 E 6 7 3 4 1020.4 1018.9 5.8
28/06:30am 13.2 12.6 12.4 95 0.4 ENE 7 9 4 5 1020.1 1018.5 5.8
28/06:00am 13.2 12.6 12.4 95 0.4 ESE 7 9 4 5 1020.0 1018.4 5.8
28/05:30am 12.9 11.8 12.1 95 0.4 E 9 13 5 7 1019.8 1018.2 5.8
28/05:00am 13.0 11.6 12.1 94 0.5 E 11 13 6 7 1019.4 1017.8 5.8
28/04:30am 13.3 11.6 12.4 94 0.5 E 13 17 7 9 1019.1 1017.5 5.8
28/04:00am 13.4 12.4 12.3 93 0.6 E 9 13 5 7 1019.0 1017.4 5.8
28/03:30am 13.5 12.5 12.2 92 0.7 ESE 9 13 5 7 1018.9 1017.3 5.8
28/03:00am 13.9 13.0 12.5 91 0.8 ESE 9 9 5 5 1018.7 1017.1 5.8
28/02:30am 14.1 13.2 12.5 90 0.9 ESE 9 13 5 7 1018.8 1017.2 5.8
28/02:00am 14.3 13.9 12.5 89 1.0 SE 6 11 3 6 1018.9 1017.3 5.8
28/01:30am 14.4 13.9 12.6 89 1.0 E 7 9 4 5 1019.0 1017.4 5.8
28/01:00am 14.3 13.7 12.3 88 1.1 E 7 9 4 5 1019.2 1017.6 5.8
28/12:30am 14.6 13.7 12.5 87 1.2 ESE 9 13 5 7 1019.4 1017.8 5.8
28/12:00am 14.8 14.3 12.5 86 1.3 E 7 9 4 5 1019.5 1017.9 5.8
 
Date/Time
WST
Temp
°C
App
Temp
°C
Dew
Point
Rel
Hum
%
Delta-T
°C
Wind Press
QNH
hPa
Press
MSL
hPa
Rain
since 9 am
mm
Dir
 
Spd
km/h
Gust
km/h
Spd
kts
Gust
kts
27/11:30pm 15.2 14.0 12.7 85 1.4 ENE 11 15 6 8 1019.6 1018.0 5.8
27/11:00pm 15.6 14.4 12.7 83 1.6 E 11 15 6 8 1019.8 1018.2 5.8
27/10:30pm 15.9 14.3 12.8 82 1.7 E 13 19 7 10 1020.0 1018.4 5.8
27/10:00pm 16.4 15.2 12.9 80 2.0 ESE 11 15 6 8 1020.2 1018.6 5.8
27/09:30pm 17.0 15.4 12.9 77 2.3 E 13 19 7 10 1020.1 1018.5 5.8
27/09:00pm 17.4 15.5 12.9 75 2.5 ENE 15 20 8 11 1020.1 1018.5 5.8
27/08:30pm 17.8 15.5 12.9 73 2.8 ENE 17 20 9 11 1019.8 1018.2 5.8
27/08:00pm 18.4 16.7 12.6 69 3.3 ENE 13 17 7 9 1019.9 1018.3 5.8
27/07:30pm 19.0 17.0 12.7 67 3.6 ENE 15 20 8 11 1019.6 1018.0 5.8
27/07:00pm 19.4 17.6 12.2 63 4.1 ENE 13 17 7 9 1019.2 1017.6 5.8
27/06:30pm 20.0 18.5 12.0 60 4.5 E 11 15 6 8 1018.8 1017.2 5.8
27/06:00pm 20.7 19.1 11.6 56 5.1 ESE 11 15 6 8 1018.7 1017.1 5.8
27/05:30pm 21.4 19.8 11.4 53 5.6 ESE 11 17 6 9 1018.4 1016.8 5.8
27/05:00pm 21.5 19.3 10.9 51 5.9 E 13 17 7 9 1018.4 1016.8 5.8
27/04:30pm 21.7 19.8 11.7 53 5.7 ENE 13 17 7 9 1018.4 1016.8 5.8
27/04:00pm 21.7 19.3 11.4 52 5.8 NE 15 19 8 10 1018.6 1017.0 5.8
27/03:30pm 21.6 18.9 11.6 53 5.7 NE 17 24 9 13 1018.9 1017.3 5.8
27/03:00pm 21.6 19.0 11.9 54 5.5 ENE 17 24 9 13 1019.0 1017.4 5.8
27/02:30pm 21.2 18.1 12.1 56 5.2 ENE 20 26 11 14 1019.2 1017.6 5.8
27/02:00pm 20.6 17.1 12.1 58 4.8 ENE 22 30 12 16 1019.6 1018.0 5.8
27/01:30pm 20.0 16.4 13.0 64 4.0 ENE 24 30 13 16 1020.0 1018.4 5.8
27/01:00pm 19.9 17.0 12.9 64 4.0 ENE 20 30 11 16 1020.5 1019.0 5.8
27/12:30pm 18.5 15.8 13.6 73 2.8 ENE 20 30 11 16 1020.7 1019.1 5.8
27/12:00pm 17.6 14.9 14.5 82 1.8 E 22 28 12 15 1021.5 1019.9 5.8
27/11:30am 15.5 13.0 13.5 88 1.1 E 19 24 10 13 1022.3 1020.7 5.8
27/11:00am 14.9 12.0 12.9 88 1.1 ENE 20 24 11 13 1023.0 1021.5 5.4
27/10:30am 14.5 11.7 12.7 89 1.0 NE 19 24 10 13 1023.4 1021.9 4.4
27/10:00am 14.6 11.6 12.1 85 1.4 NE 19 26 10 14 1024.0 1022.4 2.6
27/09:30am 15.2 13.6 12.7 85 1.4 NE 13 19 7 10 1024.1 1022.5 1.2
27/09:00am 15.6 14.6 12.2 80 1.9 N 9 15 5 8 1024.4 1022.8 2.2
27/08:30am 16.4 12.3 11.3 72 2.8 NE 24 37 13 20 1023.2 1021.7 0.8
27/08:00am 16.0 11.0 11.0 72 2.7 ENE 28 37 15 20 1022.4 1020.8 0.8
27/07:30am 15.7 10.6 10.7 72 2.7 ENE 28 37 15 20 1022.5 1020.9 0.8
27/07:00am 15.5 10.1 10.9 74 2.5 NE 30 37 16 20 1022.6 1021.0 0.8
27/06:30am 15.3 10.0 11.3 77 2.2 NE 30 37 16 20 1022.5 1020.9 0.8
27/06:00am 15.0 11.7 11.6 80 1.9 NE 20 30 11 16 1022.7 1021.1 0.8
27/05:30am 16.9 13.6 9.6 62 3.9 NE 17 22 9 12 1022.7 1021.1 0.0
27/05:00am 17.5 14.4 8.9 57 4.5 NE 15 22 8 12 1022.6 1021.0 0.0
27/04:30am 17.1 14.2 9.8 62 3.9 NE 15 19 8 10 1022.4 1020.8 0.0
27/04:00am 18.7 14.6 7.8 49 5.6 NE 19 26 10 14 1022.4 1020.8 0.0
27/03:30am 19.4 14.7 6.2 42 6.7 ENE 20 24 11 13 1022.3 1020.7 0.0
27/03:00am 19.9 15.1 5.5 39 7.2 NE 20 30 11 16 1022.2 1020.6 0.0
27/02:30am 20.1 14.9 5.4 38 7.4 ENE 22 32 12 17 1022.4 1020.8 0.0
27/02:00am 20.4 14.8 5.6 38 7.4 ENE 24 32 13 17 1022.6 1021.0 0.0
27/01:30am 20.5 15.3 5.3 37 7.6 ENE 22 28 12 15 1022.5 1020.9 0.0
27/01:00am 20.5 15.3 5.3 37 7.6 ENE 22 30 12 16 1022.5 1020.9 0.0
27/12:30am 20.6 15.8 5.4 37 7.6 ENE 20 28 11 15 1022.7 1021.1 0.0
27/12:00am 20.6 15.4 5.4 37 7.6 ENE 22 33 12 18 1022.6 1021.0 0.0
 
Date/Time
WST
Temp
°C
App
Temp
°C
Dew
Point
Rel
Hum
%
Delta-T
°C
Wind Press
QNH
hPa
Press
MSL
hPa
Rain
since 9 am
mm
Dir
 
Spd
km/h
Gust
km/h
Spd
kts
Gust
kts
26/11:30pm 20.5 15.6 5.3 37 7.6 ENE 20 26 11 14 1022.8 1021.2 0.0
26/11:00pm 20.9 16.2 5.3 36 7.8 E 19 24 10 13 1023.2 1021.7 0.0
26/10:30pm 21.2 15.9 5.1 35 8.1 ENE 22 30 12 16 1023.2 1021.7 0.0
26/10:00pm 21.4 15.8 5.3 35 8.1 ENE 24 32 13 17 1023.3 1021.8 0.0
26/09:30pm 21.4 15.8 5.3 35 8.1 ENE 24 30 13 16 1023.4 1021.9 0.0
26/09:00pm 21.4 16.2 5.3 35 8.1 ENE 22 30 12 16 1023.6 1022.1 0.0
26/08:30pm 21.8 16.8 4.8 33 8.5 ENE 20 28 11 15 1023.4 1021.9 0.0
26/08:00pm 22.3 17.5 4.4 31 8.9 ENE 19 24 10 13 1023.3 1021.8 0.0
26/07:30pm 22.9 17.9 4.4 30 9.3 ENE 20 26 11 14 1023.1 1021.6 0.0
26/07:00pm 23.1 19.0 4.1 29 9.4 ENE 15 19 8 10 1022.9 1021.4 0.0
26/06:30pm 23.9 18.8 3.2 26 10.2 NE 19 24 10 13 1022.9 1021.4 0.0
26/06:00pm 24.8 19.3 4.0 26 10.4 ENE 22 30 12 16 1022.6 1021.0 0.0
26/05:30pm 25.7 20.5 3.6 24 11.1 ENE 20 26 11 14 1022.5 1020.9 0.0
26/05:00pm 25.8 20.2 3.7 24 11.1 ENE 22 30 12 16 1022.3 1020.7 0.0
26/04:30pm 26.4 20.3 3.0 22 11.7 NE 24 35 13 19 1022.3 1020.7 0.0
26/04:00pm 26.8 20.9 4.0 23 11.6 ENE 24 33 13 18 1022.2 1020.6 0.0
26/03:30pm 27.1 22.1 3.6 22 11.9 E 19 28 10 15 1022.4 1020.8 0.0
26/03:00pm 26.8 21.6 3.3 22 11.8 E 20 32 11 17 1022.6 1021.0 0.0
26/02:30pm 26.3 21.1 3.5 23 11.5 ENE 20 32 11 17 1022.8 1021.2 0.0
26/02:00pm 25.9 21.1 4.4 25 10.9 NE 19 24 10 13 1023.0 1021.5 0.0
26/01:30pm 26.2 20.8 4.6 25 11.1 ENE 22 37 12 20 1023.6 1022.1 0.0
26/01:00pm 25.5 19.7 4.6 26 10.6 ENE 24 33 13 18 1024.2 1022.6 0.0
26/12:30pm 25.1 20.4 5.3 28 10.2 NE 19 28 10 15 1024.6 1023.0 0.0
26/12:00pm 25.2 20.3 4.9 27 10.4 ENE 20 30 11 16 1025.3 1023.7 0.0
26/11:30am 24.3 19.0 6.6 32 9.3 ENE 24 33 13 18 1025.7 1024.2 0.0
26/11:00am 23.2 17.9 6.9 35 8.5 ENE 24 32 13 17 1026.1 1024.6 0.0
26/10:30am 22.3 17.4 8.4 41 7.5 NE 24 33 13 18 1026.5 1025.0 0.0
26/10:00am 21.3 15.7 8.6 44 6.8 NE 28 37 15 20 1027.0 1025.4 0.0
26/09:30am 19.9 14.3 8.9 49 5.9 NE 28 35 15 19 1027.3 1025.7 0.0
26/09:00am 19.3 13.5 9.5 53 5.2 ENE 30 35 16 19 1027.3 1025.7 0.0
26/08:30am 17.8 12.5 9.7 59 4.3 ENE 28 35 15 19 1027.3 1025.7 0.0
26/08:00am 16.5 12.0 10.1 66 3.4 ENE 24 32 13 17 1027.4 1025.8 0.0
26/07:30am 15.2 10.3 10.0 71 2.8 ENE 26 35 14 19 1027.4 1025.8 0.0
26/07:00am 14.1 10.5 9.9 76 2.2 E 19 26 10 14 1027.5 1025.9 0.0
26/06:30am 13.6 10.4 9.8 78 2.0 E 17 22 9 12 1027.3 1025.7 0.0
26/06:00am 13.5 10.3 9.9 79 1.9 E 17 24 9 13 1027.2 1025.6 0.0
26/05:30am 13.5 12.2 9.9 79 1.9 N 7 13 4 7 1027.1 1025.5 0.0
26/05:00am 14.1 9.6 10.1 77 2.1 E 24 37 13 20 1026.2 1024.7 0.0
26/04:30am 14.2 9.7 10.0 76 2.2 E 24 39 13 21 1025.8 1024.3 0.0
26/04:00am 14.4 9.9 10.0 75 2.3 E 24 33 13 18 1025.6 1024.1 0.0
26/03:30am 14.7 10.2 10.1 74 2.4 E 24 32 13 17 1025.6 1024.1 0.0
26/03:00am 14.9 10.4 10.1 73 2.5 E 24 33 13 18 1025.4 1023.8 0.0
26/02:30am 15.3 10.4 10.1 71 2.8 ESE 26 37 14 20 1025.3 1023.7 0.0
26/02:00am 15.6 10.8 10.2 70 2.9 ESE 26 37 14 20 1025.4 1023.8 0.0
26/01:30am 15.9 11.4 10.0 68 3.1 ESE 24 32 13 17 1025.6 1024.1 0.0
26/01:00am 16.2 11.6 9.6 65 3.5 ESE 24 35 13 19 1025.5 1024.0 0.0
26/12:30am 16.9 12.3 9.8 63 3.8 ESE 24 33 13 18 1025.5 1024.0 0.0
26/12:00am 17.3 13.0 9.5 60 4.1 ESE 22 35 12 19 1025.5 1024.0 0.0
 
Date/Time
WST
Temp
°C
App
Temp
°C
Dew
Point
Rel
Hum
%
Delta-T
°C
Wind Press
QNH
hPa
Press
MSL
hPa
Rain
since 9 am
mm
Dir
 
Spd
km/h
Gust
km/h
Spd
kts
Gust
kts
25/11:30pm 17.4 13.1 8.0 54 4.9 ESE 20 32 11 17 1025.4 1023.8 0.0
25/11:00pm 17.9 13.2 6.1 46 5.9 ESE 20 28 11 15 1025.4 1023.8 0.0
25/10:30pm 18.3 12.8 3.8 38 6.9 ESE 22 32 12 17 1025.3 1023.7 0.0
25/10:00pm 18.9 14.0 1.9 32 7.8 ESE 17 22 9 12 1025.1 1023.5 0.0
25/09:30pm 19.4 14.9 1.9 31 8.1 ESE 15 20 8 11 1025.1 1023.5 0.0
25/09:00pm 20.2 14.9 1.6 29 8.6 ESE 19 24 10 13 1024.7 1023.1 0.0
25/08:30pm 20.7 15.4 1.6 28 8.9 E 19 24 10 13 1024.5 1022.9 0.0
25/08:00pm 21.4 16.0 1.1 26 9.4 ESE 19 24 10 13 1024.2 1022.6 0.0
25/07:30pm 21.9 16.5 1.5 26 9.6 ESE 19 24 10 13 1024.1 1022.5 0.0
25/07:00pm 22.8 16.9 1.8 25 10.0 ESE 22 32 12 17 1023.6 1022.1 0.0
25/06:30pm 23.5 17.6 1.8 24 10.4 ESE 22 30 12 16 1023.4 1021.9 0.0
25/06:00pm 24.5 18.2 1.4 22 11.0 SE 24 35 13 19 1023.1 1021.6 0.0
25/05:30pm 25.3 19.9 1.4 21 11.5 ESE 19 28 10 15 1023.1 1021.6 0.0
25/05:00pm 25.8 20.2 1.2 20 11.8 ESE 20 33 11 18 1022.9 1021.4 0.0
25/04:30pm 25.9 20.9 1.2 20 11.9 ESE 17 26 9 14 1022.9 1021.4 0.0
25/04:00pm 26.6 21.7 1.8 20 12.1 ESE 17 24 9 13 1022.9 1021.4 0.0
25/03:30pm 26.0 20.6 1.3 20 11.9 E 19 26 10 14 1022.9 1021.4 0.0
25/03:00pm 26.2 20.5 0.8 19 12.1 E 20 35 11 19 1023.2 1021.7 0.0
25/02:30pm 26.1 20.2 1.4 20 12.0 ENE 22 33 12 18 1023.3 1021.8 0.0
25/02:00pm 25.4 20.4 1.5 21 11.5 ESE 17 30 9 16 1023.4 1021.9 0.0
25/01:30pm 24.6 19.1 2.1 23 10.9 E 20 33 11 18 1023.8 1022.2 0.0
25/01:00pm 24.4 19.6 2.5 24 10.6 E 17 32 9 17 1024.1 1022.5 0.0
25/12:30pm 24.1 19.4 2.9 25 10.4 E 17 33 9 18 1024.6 1023.0 0.0
25/12:00pm 24.5 19.8 3.2 25 10.5 ENE 17 26 9 14 1025.0 1023.4 0.0
25/11:30am 23.5 18.8 2.9 26 10.1 E 17 30 9 16 1025.3 1023.7 0.0
25/11:00am 22.5 18.7 4.1 30 9.1 NE 13 28 7 15 1025.8 1024.3 0.0
25/10:30am 22.0 18.0 5.0 33 8.6 E 15 24 8 13 1026.2 1024.7 0.0
25/10:00am 21.2 17.2 4.7 34 8.2 E 15 20 8 11 1026.3 1024.8 0.0

Other Formats:

Comma delimited format used in spreadsheet applications
http://www.bom.gov.au/fwo/IDW60801/IDW60801.95634.axf

JavaScript Object Notation format (JSON) in row-major order
http://www.bom.gov.au/fwo/IDW60801/IDW60801.95634.json